sensor_id;sensor_type;location;lat;lon;timestamp;temperature;humidity
30572;DHT22;17348;50.948;10.696;2023-02-27T00:00:11;-0.10;99.90
30572;DHT22;17348;50.948;10.696;2023-02-27T00:03:14;-0.20;99.90
30572;DHT22;17348;50.948;10.696;2023-02-27T00:06:17;-0.20;99.90
30572;DHT22;17348;50.948;10.696;2023-02-27T00:09:19;-0.20;99.90
30572;DHT22;17348;50.948;10.696;2023-02-27T00:12:21;-0.30;99.90
30572;DHT22;17348;50.948;10.696;2023-02-27T00:15:25;-0.30;99.90
30572;DHT22;17348;50.948;10.696;2023-02-27T00:18:30;-0.30;99.90
30572;DHT22;17348;50.948;10.696;2023-02-27T00:21:33;-0.20;99.90
30572;DHT22;17348;50.948;10.696;2023-02-27T00:24:35;-0.20;99.90
30572;DHT22;17348;50.948;10.696;2023-02-27T00:27:37;-0.30;99.90
30572;DHT22;17348;50.948;10.696;2023-02-27T00:30:41;-0.20;99.90
30572;DHT22;17348;50.948;10.696;2023-02-27T00:33:44;-0.20;99.90
30572;DHT22;17348;50.948;10.696;2023-02-27T00:36:46;-0.30;99.90
30572;DHT22;17348;50.948;10.696;2023-02-27T00:39:48;-0.30;99.90
30572;DHT22;17348;50.948;10.696;2023-02-27T00:42:51;-0.30;99.90
30572;DHT22;17348;50.948;10.696;2023-02-27T00:45:55;-0.40;99.90
30572;DHT22;17348;50.948;10.696;2023-02-27T00:48:57;-0.40;99.90
30572;DHT22;17348;50.948;10.696;2023-02-27T00:51:59;-0.40;99.90
30572;DHT22;17348;50.948;10.696;2023-02-27T00:55:02;-0.50;99.90
30572;DHT22;17348;50.948;10.696;2023-02-27T00:58:04;-0.60;99.90
30572;DHT22;17348;50.948;10.696;2023-02-27T01:01:08;-0.60;99.90
30572;DHT22;17348;50.948;10.696;2023-02-27T01:04:11;-0.70;99.90
30572;DHT22;17348;50.948;10.696;2023-02-27T01:07:13;-0.80;99.90
30572;DHT22;17348;50.948;10.696;2023-02-27T01:10:15;-0.80;99.90
30572;DHT22;17348;50.948;10.696;2023-02-27T01:13:18;-0.80;99.90
30572;DHT22;17348;50.948;10.696;2023-02-27T01:16:22;-0.90;99.90
30572;DHT22;17348;50.948;10.696;2023-02-27T01:19:24;-0.90;99.90
30572;DHT22;17348;50.948;10.696;2023-02-27T01:22:27;-0.90;99.90
30572;DHT22;17348;50.948;10.696;2023-02-27T01:25:29;-1.00;99.90
30572;DHT22;17348;50.948;10.696;2023-02-27T01:28:31;-1.10;99.90
30572;DHT22;17348;50.948;10.696;2023-02-27T01:31:35;-1.10;99.90
30572;DHT22;17348;50.948;10.696;2023-02-27T01:34:37;-1.10;99.90
30572;DHT22;17348;50.948;10.696;2023-02-27T01:37:40;-1.20;99.90
30572;DHT22;17348;50.948;10.696;2023-02-27T01:40:42;-1.20;99.90
30572;DHT22;17348;50.948;10.696;2023-02-27T01:43:58;-1.20;99.90
30572;DHT22;17348;50.948;10.696;2023-02-27T01:47:02;-1.30;99.90
30572;DHT22;17348;50.948;10.696;2023-02-27T01:50:06;-1.30;99.90
30572;DHT22;17348;50.948;10.696;2023-02-27T01:53:08;-1.30;99.90
30572;DHT22;17348;50.948;10.696;2023-02-27T01:56:14;-1.40;99.90
30572;DHT22;17348;50.948;10.696;2023-02-27T01:59:17;-1.40;99.90
30572;DHT22;17348;50.948;10.696;2023-02-27T02:02:25;-1.50;99.90
30572;DHT22;17348;50.948;10.696;2023-02-27T02:05:29;-1.50;99.90
30572;DHT22;17348;50.948;10.696;2023-02-27T02:08:34;-1.50;99.90
30572;DHT22;17348;50.948;10.696;2023-02-27T02:11:38;-1.50;99.90
30572;DHT22;17348;50.948;10.696;2023-02-27T02:14:40;-1.60;99.90
30572;DHT22;17348;50.948;10.696;2023-02-27T02:17:53;-1.60;99.90
30572;DHT22;17348;50.948;10.696;2023-02-27T02:25:10;-1.70;99.90
30572;DHT22;17348;50.948;10.696;2023-02-27T02:28:31;-1.70;99.90
30572;DHT22;17348;50.948;10.696;2023-02-27T02:39:32;-1.90;99.90
30572;DHT22;17348;50.948;10.696;2023-02-27T02:42:46;-1.90;99.90
30572;DHT22;17348;50.948;10.696;2023-02-27T02:45:58;-1.90;99.90
30572;DHT22;17348;50.948;10.696;2023-02-27T02:49:10;-1.90;99.90
30572;DHT22;17348;50.948;10.696;2023-02-27T02:52:19;-1.90;99.90
30572;DHT22;17348;50.948;10.696;2023-02-27T02:55:31;-2.00;99.90
30572;DHT22;17348;50.948;10.696;2023-02-27T02:58:38;-2.00;99.90
30572;DHT22;17348;50.948;10.696;2023-02-27T03:01:49;-2.00;99.90
30572;DHT22;17348;50.948;10.696;2023-02-27T03:04:55;-2.00;99.90
30572;DHT22;17348;50.948;10.696;2023-02-27T03:08:03;-2.00;99.90
30572;DHT22;17348;50.948;10.696;2023-02-27T03:11:07;-2.10;99.90
30572;DHT22;17348;50.948;10.696;2023-02-27T03:14:17;-2.10;99.90
30572;DHT22;17348;50.948;10.696;2023-02-27T03:17:26;-2.10;99.90
30572;DHT22;17348;50.948;10.696;2023-02-27T03:20:32;-2.10;99.90
30572;DHT22;17348;50.948;10.696;2023-02-27T03:23:41;-2.10;99.90
30572;DHT22;17348;50.948;10.696;2023-02-27T03:26:46;-2.10;99.90
30572;DHT22;17348;50.948;10.696;2023-02-27T03:29:53;-2.10;99.90
30572;DHT22;17348;50.948;10.696;2023-02-27T03:33:00;-2.10;99.90
30572;DHT22;17348;50.948;10.696;2023-02-27T03:36:06;-2.20;99.90
30572;DHT22;17348;50.948;10.696;2023-02-27T03:39:20;-2.20;99.90
30572;DHT22;17348;50.948;10.696;2023-02-27T03:42:31;-2.20;99.90
30572;DHT22;17348;50.948;10.696;2023-02-27T03:45:41;-2.30;99.90
30572;DHT22;17348;50.948;10.696;2023-02-27T03:48:46;-2.30;99.90
30572;DHT22;17348;50.948;10.696;2023-02-27T03:51:49;-2.40;99.90
30572;DHT22;17348;50.948;10.696;2023-02-27T03:54:55;-2.40;99.90
30572;DHT22;17348;50.948;10.696;2023-02-27T03:58:01;-2.50;99.90
30572;DHT22;17348;50.948;10.696;2023-02-27T04:01:03;-2.50;99.90
30572;DHT22;17348;50.948;10.696;2023-02-27T04:04:11;-2.50;99.90
30572;DHT22;17348;50.948;10.696;2023-02-27T04:07:19;-2.50;99.90
30572;DHT22;17348;50.948;10.696;2023-02-27T04:10:39;-2.50;99.90
30572;DHT22;17348;50.948;10.696;2023-02-27T04:14:11;-2.50;99.90
30572;DHT22;17348;50.948;10.696;2023-02-27T04:17:27;-2.50;99.90
30572;DHT22;17348;50.948;10.696;2023-02-27T04:20:41;-2.40;99.90
30572;DHT22;17348;50.948;10.696;2023-02-27T04:23:48;-2.40;99.90
30572;DHT22;17348;50.948;10.696;2023-02-27T04:26:55;-2.30;99.90
30572;DHT22;17348;50.948;10.696;2023-02-27T04:30:10;-2.20;99.90
30572;DHT22;17348;50.948;10.696;2023-02-27T04:33:22;-2.10;99.90
30572;DHT22;17348;50.948;10.696;2023-02-27T04:36:30;-2.10;99.90
30572;DHT22;17348;50.948;10.696;2023-02-27T04:39:37;-2.00;99.90
30572;DHT22;17348;50.948;10.696;2023-02-27T04:42:45;-2.00;99.90
30572;DHT22;17348;50.948;10.696;2023-02-27T04:49:02;-1.80;99.90
30572;DHT22;17348;50.948;10.696;2023-02-27T04:52:10;-1.80;99.90
30572;DHT22;17348;50.948;10.696;2023-02-27T04:55:21;-1.80;99.90
30572;DHT22;17348;50.948;10.696;2023-02-27T04:58:27;-1.70;99.90
30572;DHT22;17348;50.948;10.696;2023-02-27T05:01:40;-1.70;99.90
30572;DHT22;17348;50.948;10.696;2023-02-27T05:04:47;-1.70;99.90
30572;DHT22;17348;50.948;10.696;2023-02-27T05:07:54;-1.70;99.90
30572;DHT22;17348;50.948;10.696;2023-02-27T05:11:01;-1.60;99.90
30572;DHT22;17348;50.948;10.696;2023-02-27T05:14:09;-1.60;99.90
30572;DHT22;17348;50.948;10.696;2023-02-27T05:17:17;-1.50;99.90
30572;DHT22;17348;50.948;10.696;2023-02-27T05:20:24;-1.50;99.90
30572;DHT22;17348;50.948;10.696;2023-02-27T05:23:34;-1.40;99.90
30572;DHT22;17348;50.948;10.696;2023-02-27T05:26:53;-1.40;99.90
30572;DHT22;17348;50.948;10.696;2023-02-27T05:30:00;-1.30;99.90
30572;DHT22;17348;50.948;10.696;2023-02-27T05:33:08;-1.30;99.90
30572;DHT22;17348;50.948;10.696;2023-02-27T05:36:19;-1.20;99.90
30572;DHT22;17348;50.948;10.696;2023-02-27T05:39:26;-1.10;99.90
30572;DHT22;17348;50.948;10.696;2023-02-27T05:42:33;-1.10;99.90
30572;DHT22;17348;50.948;10.696;2023-02-27T05:45:39;-1.00;99.90
30572;DHT22;17348;50.948;10.696;2023-02-27T05:48:43;-1.00;99.90
30572;DHT22;17348;50.948;10.696;2023-02-27T05:51:50;-1.00;99.90
30572;DHT22;17348;50.948;10.696;2023-02-27T05:54:58;-1.00;99.90
30572;DHT22;17348;50.948;10.696;2023-02-27T05:58:06;-1.00;99.90
30572;DHT22;17348;50.948;10.696;2023-02-27T06:01:11;-0.90;99.90
30572;DHT22;17348;50.948;10.696;2023-02-27T06:04:13;-0.90;99.90
30572;DHT22;17348;50.948;10.696;2023-02-27T06:07:17;-0.90;99.90
30572;DHT22;17348;50.948;10.696;2023-02-27T06:10:21;-0.90;99.90
30572;DHT22;17348;50.948;10.696;2023-02-27T06:13:24;-0.90;99.90
30572;DHT22;17348;50.948;10.696;2023-02-27T06:16:27;-0.90;99.90
30572;DHT22;17348;50.948;10.696;2023-02-27T06:19:29;-0.80;99.90
30572;DHT22;17348;50.948;10.696;2023-02-27T06:22:33;-0.80;99.90
30572;DHT22;17348;50.948;10.696;2023-02-27T06:25:36;-0.70;99.90
30572;DHT22;17348;50.948;10.696;2023-02-27T06:28:38;-0.70;99.90
30572;DHT22;17348;50.948;10.696;2023-02-27T06:31:41;-0.60;99.90
30572;DHT22;17348;50.948;10.696;2023-02-27T06:34:45;-0.50;99.90
30572;DHT22;17348;50.948;10.696;2023-02-27T06:37:51;-0.50;99.90
30572;DHT22;17348;50.948;10.696;2023-02-27T06:40:53;-0.50;99.90
30572;DHT22;17348;50.948;10.696;2023-02-27T06:43:56;-0.50;99.90
30572;DHT22;17348;50.948;10.696;2023-02-27T06:46:58;-0.50;99.90
30572;DHT22;17348;50.948;10.696;2023-02-27T06:50:01;-0.60;99.90
30572;DHT22;17348;50.948;10.696;2023-02-27T06:53:05;-0.60;99.90
30572;DHT22;17348;50.948;10.696;2023-02-27T06:56:07;-0.50;99.90
30572;DHT22;17348;50.948;10.696;2023-02-27T06:59:10;-0.50;99.90
30572;DHT22;17348;50.948;10.696;2023-02-27T07:02:14;-0.40;99.90
30572;DHT22;17348;50.948;10.696;2023-02-27T07:05:17;-0.30;99.90
30572;DHT22;17348;50.948;10.696;2023-02-27T07:08:20;-0.20;99.90
30572;DHT22;17348;50.948;10.696;2023-02-27T07:11:23;-0.10;99.90
30572;DHT22;17348;50.948;10.696;2023-02-27T07:14:25;-0.10;99.90
30572;DHT22;17348;50.948;10.696;2023-02-27T07:17:28;0.10;99.90
30572;DHT22;17348;50.948;10.696;2023-02-27T07:20:31;0.10;99.90
30572;DHT22;17348;50.948;10.696;2023-02-27T07:23:35;0.20;99.90
30572;DHT22;17348;50.948;10.696;2023-02-27T07:26:38;0.30;99.90
30572;DHT22;17348;50.948;10.696;2023-02-27T07:29:40;0.50;99.90
30572;DHT22;17348;50.948;10.696;2023-02-27T07:32:43;1.10;99.90
30572;DHT22;17348;50.948;10.696;2023-02-27T07:35:45;1.50;99.90
30572;DHT22;17348;50.948;10.696;2023-02-27T07:38:50;2.40;99.90
30572;DHT22;17348;50.948;10.696;2023-02-27T07:41:52;2.80;99.90
30572;DHT22;17348;50.948;10.696;2023-02-27T07:44:55;3.50;99.90
30572;DHT22;17348;50.948;10.696;2023-02-27T07:47:57;3.90;99.90
30572;DHT22;17348;50.948;10.696;2023-02-27T07:50:59;3.80;99.90
30572;DHT22;17348;50.948;10.696;2023-02-27T07:54:04;3.60;99.90
30572;DHT22;17348;50.948;10.696;2023-02-27T07:57:06;3.60;99.90
30572;DHT22;17348;50.948;10.696;2023-02-27T08:00:10;3.70;99.90
30572;DHT22;17348;50.948;10.696;2023-02-27T08:03:12;4.20;99.90
30572;DHT22;17348;50.948;10.696;2023-02-27T08:06:15;3.60;99.90
30572;DHT22;17348;50.948;10.696;2023-02-27T08:09:18;3.30;99.90
30572;DHT22;17348;50.948;10.696;2023-02-27T08:12:21;3.20;99.90
30572;DHT22;17348;50.948;10.696;2023-02-27T08:15:23;3.00;99.90
30572;DHT22;17348;50.948;10.696;2023-02-27T08:18:25;2.80;99.90
30572;DHT22;17348;50.948;10.696;2023-02-27T08:21:29;2.60;99.90
30572;DHT22;17348;50.948;10.696;2023-02-27T08:24:32;2.70;99.90
30572;DHT22;17348;50.948;10.696;2023-02-27T08:27:35;2.70;99.90
30572;DHT22;17348;50.948;10.696;2023-02-27T08:30:37;2.60;99.90
30572;DHT22;17348;50.948;10.696;2023-02-27T08:33:40;2.50;99.90
30572;DHT22;17348;50.948;10.696;2023-02-27T08:36:42;2.50;99.90
30572;DHT22;17348;50.948;10.696;2023-02-27T08:39:46;2.70;99.90
30572;DHT22;17348;50.948;10.696;2023-02-27T08:42:49;2.80;99.90
30572;DHT22;17348;50.948;10.696;2023-02-27T08:45:52;2.90;99.90
30572;DHT22;17348;50.948;10.696;2023-02-27T08:48:54;2.90;99.90
30572;DHT22;17348;50.948;10.696;2023-02-27T08:51:57;2.70;99.90
30572;DHT22;17348;50.948;10.696;2023-02-27T08:55:01;2.70;99.90
30572;DHT22;17348;50.948;10.696;2023-02-27T08:58:03;2.60;99.90
30572;DHT22;17348;50.948;10.696;2023-02-27T09:01:05;2.50;99.90
30572;DHT22;17348;50.948;10.696;2023-02-27T09:04:08;2.50;99.90
30572;DHT22;17348;50.948;10.696;2023-02-27T09:07:10;2.60;99.90
30572;DHT22;17348;50.948;10.696;2023-02-27T09:10:14;2.60;99.90
30572;DHT22;17348;50.948;10.696;2023-02-27T09:13:17;2.60;99.90
30572;DHT22;17348;50.948;10.696;2023-02-27T09:16:21;2.60;99.90
30572;DHT22;17348;50.948;10.696;2023-02-27T09:19:24;2.70;99.90
30572;DHT22;17348;50.948;10.696;2023-02-27T09:22:26;2.70;99.90
30572;DHT22;17348;50.948;10.696;2023-02-27T09:25:30;2.70;99.90
30572;DHT22;17348;50.948;10.696;2023-02-27T09:28:33;2.80;99.90
30572;DHT22;17348;50.948;10.696;2023-02-27T09:31:35;2.60;99.90
30572;DHT22;17348;50.948;10.696;2023-02-27T09:34:37;2.60;99.90
30572;DHT22;17348;50.948;10.696;2023-02-27T09:37:40;2.70;99.90
30572;DHT22;17348;50.948;10.696;2023-02-27T09:40:44;2.80;99.90
30572;DHT22;17348;50.948;10.696;2023-02-27T09:43:50;2.90;99.90
30572;DHT22;17348;50.948;10.696;2023-02-27T09:46:53;2.80;99.90
30572;DHT22;17348;50.948;10.696;2023-02-27T09:49:58;2.90;99.90
30572;DHT22;17348;50.948;10.696;2023-02-27T09:53:02;2.90;99.90
30572;DHT22;17348;50.948;10.696;2023-02-27T09:56:12;3.00;99.90
30572;DHT22;17348;50.948;10.696;2023-02-27T09:59:25;3.10;99.90
30572;DHT22;17348;50.948;10.696;2023-02-27T10:02:39;3.10;99.90
30572;DHT22;17348;50.948;10.696;2023-02-27T10:05:48;3.10;99.90
30572;DHT22;17348;50.948;10.696;2023-02-27T10:09:05;3.00;99.90
30572;DHT22;17348;50.948;10.696;2023-02-27T10:12:39;2.90;99.90
30572;DHT22;17348;50.948;10.696;2023-02-27T10:15:46;2.70;99.90
30572;DHT22;17348;50.948;10.696;2023-02-27T10:18:53;2.60;99.90
30572;DHT22;17348;50.948;10.696;2023-02-27T10:21:59;2.70;99.90
30572;DHT22;17348;50.948;10.696;2023-02-27T10:25:09;2.80;99.90
30572;DHT22;17348;50.948;10.696;2023-02-27T10:28:16;3.00;99.90
30572;DHT22;17348;50.948;10.696;2023-02-27T10:31:21;3.10;99.90
30572;DHT22;17348;50.948;10.696;2023-02-27T10:34:26;3.00;99.90
30572;DHT22;17348;50.948;10.696;2023-02-27T10:37:30;2.70;99.90
30572;DHT22;17348;50.948;10.696;2023-02-27T10:40:34;2.60;99.90
30572;DHT22;17348;50.948;10.696;2023-02-27T10:43:38;2.40;99.90
30572;DHT22;17348;50.948;10.696;2023-02-27T10:46:41;2.40;99.90
30572;DHT22;17348;50.948;10.696;2023-02-27T10:49:44;2.50;99.90
30572;DHT22;17348;50.948;10.696;2023-02-27T10:52:51;2.50;99.90
30572;DHT22;17348;50.948;10.696;2023-02-27T10:56:00;2.60;99.90
30572;DHT22;17348;50.948;10.696;2023-02-27T10:59:05;2.80;99.90
30572;DHT22;17348;50.948;10.696;2023-02-27T11:02:21;2.80;99.90
30572;DHT22;17348;50.948;10.696;2023-02-27T11:05:25;2.70;99.90
30572;DHT22;17348;50.948;10.696;2023-02-27T11:08:30;2.70;99.90
30572;DHT22;17348;50.948;10.696;2023-02-27T11:11:32;2.70;99.90
30572;DHT22;17348;50.948;10.696;2023-02-27T11:14:49;2.60;99.90
30572;DHT22;17348;50.948;10.696;2023-02-27T11:17:52;2.60;99.90
30572;DHT22;17348;50.948;10.696;2023-02-27T11:21:09;2.70;99.90
30572;DHT22;17348;50.948;10.696;2023-02-27T11:24:18;2.60;99.90
30572;DHT22;17348;50.948;10.696;2023-02-27T11:27:24;2.80;99.90
30572;DHT22;17348;50.948;10.696;2023-02-27T11:30:30;3.10;99.90
30572;DHT22;17348;50.948;10.696;2023-02-27T11:33:35;3.40;99.90
30572;DHT22;17348;50.948;10.696;2023-02-27T11:36:41;3.50;99.90
30572;DHT22;17348;50.948;10.696;2023-02-27T11:39:48;3.60;99.90
30572;DHT22;17348;50.948;10.696;2023-02-27T11:42:54;3.50;99.90
30572;DHT22;17348;50.948;10.696;2023-02-27T11:45:59;3.50;99.90
30572;DHT22;17348;50.948;10.696;2023-02-27T11:49:16;3.50;99.90
30572;DHT22;17348;50.948;10.696;2023-02-27T11:52:27;3.30;99.90
30572;DHT22;17348;50.948;10.696;2023-02-27T11:55:32;3.20;99.90
30572;DHT22;17348;50.948;10.696;2023-02-27T11:58:37;3.10;99.90
30572;DHT22;17348;50.948;10.696;2023-02-27T12:01:47;3.00;99.90
30572;DHT22;17348;50.948;10.696;2023-02-27T12:04:53;3.10;99.90
30572;DHT22;17348;50.948;10.696;2023-02-27T12:07:59;3.30;99.90
30572;DHT22;17348;50.948;10.696;2023-02-27T12:11:11;3.60;99.90
30572;DHT22;17348;50.948;10.696;2023-02-27T12:14:17;3.90;99.90
30572;DHT22;17348;50.948;10.696;2023-02-27T12:17:27;3.90;99.90
30572;DHT22;17348;50.948;10.696;2023-02-27T12:20:35;4.00;99.90
30572;DHT22;17348;50.948;10.696;2023-02-27T12:23:43;4.20;99.90
30572;DHT22;17348;50.948;10.696;2023-02-27T12:26:51;4.30;99.90
30572;DHT22;17348;50.948;10.696;2023-02-27T12:29:59;4.40;99.90
30572;DHT22;17348;50.948;10.696;2023-02-27T12:33:12;4.50;99.90
30572;DHT22;17348;50.948;10.696;2023-02-27T12:36:17;4.40;99.90
30572;DHT22;17348;50.948;10.696;2023-02-27T12:39:20;4.20;99.90
30572;DHT22;17348;50.948;10.696;2023-02-27T12:42:48;4.20;99.90
30572;DHT22;17348;50.948;10.696;2023-02-27T12:46:06;3.90;99.90
30572;DHT22;17348;50.948;10.696;2023-02-27T12:49:28;3.70;99.90
30572;DHT22;17348;50.948;10.696;2023-02-27T12:52:42;3.60;99.90
30572;DHT22;17348;50.948;10.696;2023-02-27T12:55:51;3.50;99.90
30572;DHT22;17348;50.948;10.696;2023-02-27T12:59:01;3.50;99.90
30572;DHT22;17348;50.948;10.696;2023-02-27T13:02:22;3.40;99.90
30572;DHT22;17348;50.948;10.696;2023-02-27T13:05:40;3.40;99.90
30572;DHT22;17348;50.948;10.696;2023-02-27T13:09:04;3.40;99.90
30572;DHT22;17348;50.948;10.696;2023-02-27T13:12:18;3.50;99.90
30572;DHT22;17348;50.948;10.696;2023-02-27T13:15:26;3.60;99.90
30572;DHT22;17348;50.948;10.696;2023-02-27T13:18:37;3.60;99.90
30572;DHT22;17348;50.948;10.696;2023-02-27T13:21:46;3.50;99.90
30572;DHT22;17348;50.948;10.696;2023-02-27T13:24:50;3.50;99.90
30572;DHT22;17348;50.948;10.696;2023-02-27T13:27:54;3.60;99.90
30572;DHT22;17348;50.948;10.696;2023-02-27T13:31:04;3.60;99.90
30572;DHT22;17348;50.948;10.696;2023-02-27T13:34:16;3.60;99.90
30572;DHT22;17348;50.948;10.696;2023-02-27T13:37:21;3.50;99.90
30572;DHT22;17348;50.948;10.696;2023-02-27T13:40:37;3.50;99.90
30572;DHT22;17348;50.948;10.696;2023-02-27T13:43:40;3.50;99.90
30572;DHT22;17348;50.948;10.696;2023-02-27T13:46:42;3.50;99.90
30572;DHT22;17348;50.948;10.696;2023-02-27T13:49:45;3.50;99.90
30572;DHT22;17348;50.948;10.696;2023-02-27T13:52:49;3.30;99.90
30572;DHT22;17348;50.948;10.696;2023-02-27T13:55:55;3.30;99.90
30572;DHT22;17348;50.948;10.696;2023-02-27T13:59:10;3.30;99.90
30572;DHT22;17348;50.948;10.696;2023-02-27T14:02:49;3.20;99.90
30572;DHT22;17348;50.948;10.696;2023-02-27T14:05:56;3.30;99.90
30572;DHT22;17348;50.948;10.696;2023-02-27T14:09:00;3.20;99.90
30572;DHT22;17348;50.948;10.696;2023-02-27T14:12:05;3.30;99.90
30572;DHT22;17348;50.948;10.696;2023-02-27T14:18:54;3.20;99.90
30572;DHT22;17348;50.948;10.696;2023-02-27T14:21:59;3.20;99.90
30572;DHT22;17348;50.948;10.696;2023-02-27T14:25:18;3.10;99.90
30572;DHT22;17348;50.948;10.696;2023-02-27T14:28:25;3.10;99.90
30572;DHT22;17348;50.948;10.696;2023-02-27T14:31:31;3.00;99.90
30572;DHT22;17348;50.948;10.696;2023-02-27T14:34:35;2.90;99.90
30572;DHT22;17348;50.948;10.696;2023-02-27T14:37:39;2.90;99.90
30572;DHT22;17348;50.948;10.696;2023-02-27T14:40:54;2.90;99.90
30572;DHT22;17348;50.948;10.696;2023-02-27T14:43:58;2.90;99.90
30572;DHT22;17348;50.948;10.696;2023-02-27T14:47:14;2.70;99.90
30572;DHT22;17348;50.948;10.696;2023-02-27T14:50:22;2.70;99.90
30572;DHT22;17348;50.948;10.696;2023-02-27T14:53:26;2.70;99.90
30572;DHT22;17348;50.948;10.696;2023-02-27T14:56:31;2.60;99.90
30572;DHT22;17348;50.948;10.696;2023-02-27T14:59:41;2.70;99.90
30572;DHT22;17348;50.948;10.696;2023-02-27T15:02:44;2.70;99.90
30572;DHT22;17348;50.948;10.696;2023-02-27T15:05:47;2.60;99.90
30572;DHT22;17348;50.948;10.696;2023-02-27T15:08:52;2.60;99.90
30572;DHT22;17348;50.948;10.696;2023-02-27T15:11:58;2.60;99.90
30572;DHT22;17348;50.948;10.696;2023-02-27T15:15:02;2.60;99.90
30572;DHT22;17348;50.948;10.696;2023-02-27T15:18:12;2.60;99.90
30572;DHT22;17348;50.948;10.696;2023-02-27T15:21:15;2.70;99.90
30572;DHT22;17348;50.948;10.696;2023-02-27T15:24:27;2.70;99.90
30572;DHT22;17348;50.948;10.696;2023-02-27T15:27:31;2.60;99.90
30572;DHT22;17348;50.948;10.696;2023-02-27T15:30:37;2.60;99.90
30572;DHT22;17348;50.948;10.696;2023-02-27T15:33:40;2.60;99.90
30572;DHT22;17348;50.948;10.696;2023-02-27T15:36:46;2.60;99.90
30572;DHT22;17348;50.948;10.696;2023-02-27T15:39:50;2.50;99.90
30572;DHT22;17348;50.948;10.696;2023-02-27T15:42:56;2.60;99.90
30572;DHT22;17348;50.948;10.696;2023-02-27T15:45:59;2.60;99.90
30572;DHT22;17348;50.948;10.696;2023-02-27T15:49:01;2.50;99.90
30572;DHT22;17348;50.948;10.696;2023-02-27T15:52:10;2.50;99.90
30572;DHT22;17348;50.948;10.696;2023-02-27T15:55:16;2.50;99.90
30572;DHT22;17348;50.948;10.696;2023-02-27T15:58:27;2.40;99.90
30572;DHT22;17348;50.948;10.696;2023-02-27T16:01:31;2.40;99.90
30572;DHT22;17348;50.948;10.696;2023-02-27T16:04:34;2.30;99.90
30572;DHT22;17348;50.948;10.696;2023-02-27T16:07:39;2.30;99.90
30572;DHT22;17348;50.948;10.696;2023-02-27T16:10:44;2.30;99.90
30572;DHT22;17348;50.948;10.696;2023-02-27T16:13:49;2.30;99.90
30572;DHT22;17348;50.948;10.696;2023-02-27T16:16:54;2.30;99.90
30572;DHT22;17348;50.948;10.696;2023-02-27T16:19:58;2.30;99.90
30572;DHT22;17348;50.948;10.696;2023-02-27T16:23:03;2.20;99.90
30572;DHT22;17348;50.948;10.696;2023-02-27T16:26:24;2.20;99.90
30572;DHT22;17348;50.948;10.696;2023-02-27T16:29:32;2.10;99.90
30572;DHT22;17348;50.948;10.696;2023-02-27T16:32:38;2.00;99.90
30572;DHT22;17348;50.948;10.696;2023-02-27T16:35:41;2.00;99.90
30572;DHT22;17348;50.948;10.696;2023-02-27T16:38:44;1.90;99.90
30572;DHT22;17348;50.948;10.696;2023-02-27T16:41:46;1.90;99.90
30572;DHT22;17348;50.948;10.696;2023-02-27T16:44:50;1.80;99.90
30572;DHT22;17348;50.948;10.696;2023-02-27T16:47:55;1.80;99.90
30572;DHT22;17348;50.948;10.696;2023-02-27T16:50:57;1.80;99.90
30572;DHT22;17348;50.948;10.696;2023-02-27T16:54:00;1.80;99.90
30572;DHT22;17348;50.948;10.696;2023-02-27T16:57:03;1.80;99.90
30572;DHT22;17348;50.948;10.696;2023-02-27T17:00:10;1.80;99.90
30572;DHT22;17348;50.948;10.696;2023-02-27T17:03:12;1.80;99.90
30572;DHT22;17348;50.948;10.696;2023-02-27T17:06:17;1.70;99.90
30572;DHT22;17348;50.948;10.696;2023-02-27T17:09:20;1.70;99.90
30572;DHT22;17348;50.948;10.696;2023-02-27T17:12:22;1.70;99.90
30572;DHT22;17348;50.948;10.696;2023-02-27T17:15:27;1.70;99.90
30572;DHT22;17348;50.948;10.696;2023-02-27T17:18:29;1.60;99.90
30572;DHT22;17348;50.948;10.696;2023-02-27T17:21:32;1.60;99.90
30572;DHT22;17348;50.948;10.696;2023-02-27T17:24:35;1.50;99.90
30572;DHT22;17348;50.948;10.696;2023-02-27T17:27:38;1.50;99.90
30572;DHT22;17348;50.948;10.696;2023-02-27T17:30:44;1.50;99.90
30572;DHT22;17348;50.948;10.696;2023-02-27T17:33:46;1.50;99.90
30572;DHT22;17348;50.948;10.696;2023-02-27T17:36:49;1.50;99.90
30572;DHT22;17348;50.948;10.696;2023-02-27T17:39:53;1.50;99.90
30572;DHT22;17348;50.948;10.696;2023-02-27T17:42:55;1.50;99.90
30572;DHT22;17348;50.948;10.696;2023-02-27T17:45:59;1.40;99.90
30572;DHT22;17348;50.948;10.696;2023-02-27T17:49:03;1.30;99.90
30572;DHT22;17348;50.948;10.696;2023-02-27T17:52:05;1.40;99.90
30572;DHT22;17348;50.948;10.696;2023-02-27T17:55:11;1.30;99.90
30572;DHT22;17348;50.948;10.696;2023-02-27T17:58:15;1.40;99.90
30572;DHT22;17348;50.948;10.696;2023-02-27T18:01:21;1.30;99.90
30572;DHT22;17348;50.948;10.696;2023-02-27T18:04:25;1.30;99.90
30572;DHT22;17348;50.948;10.696;2023-02-27T18:07:28;1.40;99.90
30572;DHT22;17348;50.948;10.696;2023-02-27T18:10:30;1.40;99.90
30572;DHT22;17348;50.948;10.696;2023-02-27T18:13:32;1.30;99.90
30572;DHT22;17348;50.948;10.696;2023-02-27T18:16:36;1.30;99.90
30572;DHT22;17348;50.948;10.696;2023-02-27T18:19:39;1.30;99.90
30572;DHT22;17348;50.948;10.696;2023-02-27T18:22:41;1.30;99.90
30572;DHT22;17348;50.948;10.696;2023-02-27T18:25:52;1.20;99.90
30572;DHT22;17348;50.948;10.696;2023-02-27T18:28:56;1.20;99.90
30572;DHT22;17348;50.948;10.696;2023-02-27T18:32:01;1.20;99.90
30572;DHT22;17348;50.948;10.696;2023-02-27T18:35:04;1.10;99.90
30572;DHT22;17348;50.948;10.696;2023-02-27T18:38:07;1.00;99.90
30572;DHT22;17348;50.948;10.696;2023-02-27T18:41:10;0.90;99.90
30572;DHT22;17348;50.948;10.696;2023-02-27T18:44:12;0.80;99.90
30572;DHT22;17348;50.948;10.696;2023-02-27T18:47:18;0.80;99.90
30572;DHT22;17348;50.948;10.696;2023-02-27T18:50:21;0.70;99.90
30572;DHT22;17348;50.948;10.696;2023-02-27T18:53:24;0.70;99.90
30572;DHT22;17348;50.948;10.696;2023-02-27T18:56:27;0.70;99.90
30572;DHT22;17348;50.948;10.696;2023-02-27T18:59:32;0.70;99.90
30572;DHT22;17348;50.948;10.696;2023-02-27T19:02:36;0.70;99.90
30572;DHT22;17348;50.948;10.696;2023-02-27T19:05:41;0.70;99.90
30572;DHT22;17348;50.948;10.696;2023-02-27T19:08:46;0.70;99.90
30572;DHT22;17348;50.948;10.696;2023-02-27T19:11:48;0.70;99.90
30572;DHT22;17348;50.948;10.696;2023-02-27T19:14:51;0.70;99.90
30572;DHT22;17348;50.948;10.696;2023-02-27T19:17:55;0.80;99.90
30572;DHT22;17348;50.948;10.696;2023-02-27T19:21:02;0.90;99.90
30572;DHT22;17348;50.948;10.696;2023-02-27T19:24:05;0.80;99.90
30572;DHT22;17348;50.948;10.696;2023-02-27T19:27:08;0.90;99.90
30572;DHT22;17348;50.948;10.696;2023-02-27T19:30:11;0.90;99.90
30572;DHT22;17348;50.948;10.696;2023-02-27T19:33:15;0.90;99.90
30572;DHT22;17348;50.948;10.696;2023-02-27T19:36:19;0.90;99.90
30572;DHT22;17348;50.948;10.696;2023-02-27T19:39:22;1.00;99.90
30572;DHT22;17348;50.948;10.696;2023-02-27T19:42:27;1.00;99.90
30572;DHT22;17348;50.948;10.696;2023-02-27T19:45:29;1.00;99.90